Time;durP1;ratioP1;P1;durP2;ratioP2;P2;SDS_P1;SDS_P2;PMS_P1;PMS_P2;Temp;Humidity;BMP_temperature;BMP_pressure;BME280_temperature;BME280_humidity;BME280_pressure;Samples;Min_cycle;Max_cycle;Signal;HPM_P1;HPM_P2
2022/08/27 00:02:04;;;;;;;1.75;1.17;;;;;;;-140.72;76.41;52524.78;4953852;28;20201;-73
2022/08/27 00:04:31;;;;;;;1.85;1.08;;;;;;;-140.72;79.59;52510.59;4954884;28;20027;-72
2022/08/27 00:06:56;;;;;;;2.88;1.25;;;;;;;-140.72;81.66;52463.91;4953944;28;20036;-73
2022/08/27 00:09:22;;;;;;;2.60;1.40;;;;;;;-140.72;82.28;52502.47;4954154;28;20361;-73
2022/08/27 00:11:48;;;;;;;1.55;1.00;;;;;;;-140.72;84.24;52482.16;4954507;28;20323;-74
2022/08/27 00:14:14;;;;;;;2.05;1.13;;;;;;;-140.72;86.47;52561.31;4954495;28;20023;-73
2022/08/27 00:16:40;;;;;;;3.38;1.00;;;;;;;-140.72;89.86;52516.66;4953722;28;20027;-73
2022/08/27 00:19:05;;;;;;;1.85;1.27;;;;;;;-140.72;91.75;52512.59;4954612;28;20081;-75
2022/08/27 00:21:31;;;;;;;2.35;1.52;;;;;;;-140.72;93.31;52516.66;4952614;28;20102;-73
2022/08/27 00:23:57;;;;;;;2.08;0.70;;;;;;;-140.72;94.88;52504.50;4946914;28;20040;-73
2022/08/27 00:26:23;;;;;;;3.28;0.80;;;;;;;-140.72;96.28;52508.56;4951822;28;20020;-73
2022/08/27 00:28:49;;;;;;;1.23;0.77;;;;;;;-140.72;98.60;52518.69;4953614;28;20031;-73
2022/08/27 00:31:15;;;;;;;2.05;1.17;;;;;;;-140.72;100.00;52543.03;4953830;28;20506;-73
2022/08/27 00:33:40;;;;;;;2.30;1.00;;;;;;;-140.72;100.00;52520.72;4954178;28;20382;-73
2022/08/27 00:36:07;;;;;;;4.53;1.50;;;;;;;-140.72;100.00;52557.25;4959069;28;20114;-74
2022/08/27 00:38:33;;;;;;;5.60;1.38;;;;;;;-140.72;100.00;52524.78;4955442;28;20086;-74
2022/08/27 00:41:00;;;;;;;1.65;0.80;;;;;;;-140.72;100.00;52524.78;4967229;28;20102;-73
2022/08/27 00:43:30;;;;;;;3.97;1.15;;;;;;;-140.72;100.00;52534.94;4959904;28;20035;-74
2022/08/27 00:46:03;;;;;;;3.08;1.05;;;;;;;-140.72;100.00;52541.03;4964288;28;20038;-73
2022/08/27 00:48:33;;;;;;;2.05;1.15;;;;;;;-140.72;100.00;52530.88;4956062;28;20020;-73
2022/08/27 00:50:59;;;;;;;3.25;1.15;;;;;;;-140.72;100.00;52512.59;4947764;28;20036;-74
2022/08/27 00:53:29;;;;;;;3.90;1.10;;;;;;;-140.72;100.00;52524.78;4959452;28;20023;-73
2022/08/27 00:56:01;;;;;;;1.43;1.10;;;;;;;-140.72;100.00;52508.56;4967976;28;20027;-73
2022/08/27 00:58:28;;;;;;;1.63;0.93;;;;;;;-140.72;100.00;52496.38;4951871;28;20030;-74
2022/08/27 01:00:54;;;;;;;1.67;0.77;;;;;;;-140.72;100.00;52545.06;4964551;28;20070;-73
2022/08/27 01:03:20;;;;;;;2.95;1.30;;;;;;;-140.72;100.00;52545.06;4958746;28;20042;-73
2022/08/27 01:05:47;;;;;;;2.22;1.30;;;;;;;-140.72;100.00;52532.91;4961853;28;20022;-74
2022/08/27 01:08:17;;;;;;;3.15;1.30;;;;;;;-140.72;100.00;52506.53;4966830;28;20037;-73
2022/08/27 01:10:44;;;;;;;2.95;0.98;;;;;;;-140.72;100.00;52530.88;4959577;28;20031;-73
2022/08/27 01:13:11;;;;;;;3.10;1.05;;;;;;;-140.72;100.00;52534.94;4956989;28;20216;-73
2022/08/27 01:15:39;;;;;;;3.95;1.00;;;;;;;-140.72;100.00;52534.94;4961107;28;20106;-72
2022/08/27 01:18:05;;;;;;;1.23;0.70;;;;;;;-140.72;100.00;52512.59;4961846;28;20031;-73
2022/08/27 01:20:40;;;;;;;2.03;1.02;;;;;;;-140.72;100.00;52553.19;4957205;28;20031;-73
2022/08/27 01:23:15;;;;;;;1.58;1.02;;;;;;;-140.72;100.00;52524.78;4956127;28;20062;-73
2022/08/27 01:25:44;;;;;;;4.30;1.70;;;;;;;-140.72;100.00;52541.03;4965527;28;20026;-73
2022/08/27 01:28:11;;;;;;;2.20;1.27;;;;;;;-140.72;100.00;52555.22;4958547;28;20114;-72
2022/08/27 01:30:36;;;;;;;3.60;1.23;;;;;;;-140.72;100.00;52545.06;4953703;28;20027;-73
2022/08/27 01:33:13;;;;;;;1.48;0.82;;;;;;;-140.72;100.00;52563.34;4953624;28;20038;-73
2022/08/27 01:35:40;;;;;;;2.38;1.30;;;;;;;-140.72;100.00;52534.94;4953597;28;20081;-73
2022/08/27 01:38:05;;;;;;;4.88;1.35;;;;;;;-140.72;100.00;52557.25;4953742;28;20087;-72
2022/08/27 01:40:31;;;;;;;2.22;1.17;;;;;;;-140.72;100.00;52528.84;4952732;28;20023;-72
2022/08/27 01:42:57;;;;;;;2.08;0.93;;;;;;;-140.72;100.00;52547.09;4953756;28;20110;-73
2022/08/27 01:45:28;;;;;;;1.83;1.15;;;;;;;-140.72;100.00;52541.03;4940290;29;20082;-73
2022/08/27 01:47:54;;;;;;;3.20;1.00;;;;;;;-140.72;100.00;52559.28;4952601;28;20035;-74
2022/08/27 01:50:27;;;;;;;1.80;0.70;;;;;;;-140.72;100.00;52563.34;4953895;28;20384;-73
2022/08/27 01:52:55;;;;;;;1.80;1.02;;;;;;;-140.72;100.00;52518.69;4952261;28;20031;-73
2022/08/27 01:55:23;;;;;;;2.03;1.13;;;;;;;-140.72;100.00;52530.88;4953355;28;20464;-74
2022/08/27 01:57:50;;;;;;;1.13;0.75;;;;;;;-140.72;100.00;52520.72;4953117;28;20031;-72
2022/08/27 02:00:22;;;;;;;3.63;1.17;;;;;;;-140.72;100.00;52541.03;4952866;28;20039;-74
2022/08/27 02:02:48;;;;;;;2.20;1.02;;;;;;;-140.72;100.00;52545.06;4953347;28;20043;-73
2022/08/27 02:05:14;;;;;;;3.35;0.82;;;;;;;-140.72;100.00;52541.03;4953238;28;20038;-73
2022/08/27 02:07:40;;;;;;;1.50;0.95;;;;;;;-140.72;100.00;52569.44;4952655;28;20023;-73
2022/08/27 02:10:08;;;;;;;4.40;1.30;;;;;;;-140.72;100.00;52561.31;4953226;28;20086;-74
2022/08/27 02:12:34;;;;;;;1.98;0.90;;;;;;;-140.72;100.00;52563.34;4952822;28;20384;-73
2022/08/27 02:15:00;;;;;;;8.77;1.50;;;;;;;-140.72;100.00;52549.13;4949854;28;20031;-74
2022/08/27 02:17:25;;;;;;;3.30;1.55;;;;;;;-140.72;100.00;52524.78;4951089;28;20030;-73
2022/08/27 02:19:52;;;;;;;4.82;1.00;;;;;;;-140.72;100.00;52534.94;4952828;28;20034;-73
2022/08/27 02:22:17;;;;;;;3.05;1.30;;;;;;;-140.72;100.00;52506.53;4949330;28;20122;-72
2022/08/27 02:24:43;;;;;;;3.30;1.08;;;;;;;-140.72;100.00;52547.09;4953166;28;20127;-73
2022/08/27 02:27:09;;;;;;;1.60;1.00;;;;;;;-140.72;100.00;52565.38;4953110;28;20098;-72
2022/08/27 02:29:34;;;;;;;2.53;1.55;;;;;;;-140.72;100.00;52571.47;4950411;28;20023;-72
2022/08/27 02:32:00;;;;;;;2.50;1.40;;;;;;;-140.72;100.00;52547.09;4953220;28;20046;-73
2022/08/27 02:34:27;;;;;;;4.55;1.08;;;;;;;-140.72;100.00;52587.69;4943909;28;20035;-73
2022/08/27 02:36:52;;;;;;;3.88;1.48;;;;;;;-140.72;100.00;52543.03;4948997;28;20163;-72
2022/08/27 02:39:18;;;;;;;2.17;1.10;;;;;;;-140.72;100.00;52581.59;4952496;28;20084;-72
2022/08/27 02:41:44;;;;;;;2.45;1.35;;;;;;;-140.72;100.00;52524.78;4953555;28;20066;-72
2022/08/27 02:44:10;;;;;;;1.55;0.98;;;;;;;-140.72;100.00;52551.16;4952164;28;20035;-72
2022/08/27 02:46:36;;;;;;;2.17;0.90;;;;;;;-140.72;100.00;52545.06;4951931;28;20484;-73
2022/08/27 02:49:01;;;;;;;1.98;1.17;;;;;;;-140.72;100.00;52536.97;4952963;28;20046;-73
2022/08/27 02:51:27;;;;;;;2.92;1.40;;;;;;;-140.72;100.00;52526.81;4947638;28;20118;-72
2022/08/27 02:53:53;;;;;;;3.20;1.02;;;;;;;-140.72;100.00;52545.06;4951020;28;20156;-73
2022/08/27 02:56:21;;;;;;;3.22;0.98;;;;;;;-140.72;100.00;52559.28;4951027;28;20050;-74
2022/08/27 02:58:47;;;;;;;1.20;0.70;;;;;;;-140.72;100.00;52561.31;4952935;28;20540;-73
2022/08/27 03:01:12;;;;;;;4.50;0.90;;;;;;;-140.72;100.00;52551.16;4949298;28;20023;-73
2022/08/27 03:03:37;;;;;;;1.67;0.88;;;;;;;-140.72;100.00;52569.44;4950558;28;20036;-73
2022/08/27 03:06:03;;;;;;;2.50;1.17;;;;;;;-140.72;100.00;52559.28;4950217;28;20035;-73
2022/08/27 03:08:29;;;;;;;1.20;0.90;;;;;;;-140.72;100.00;52565.38;4952016;28;20078;-73
2022/08/27 03:10:56;;;;;;;3.10;1.42;;;;;;;-140.72;100.00;52577.53;4951979;28;20082;-74
2022/08/27 03:13:22;;;;;;;3.15;1.15;;;;;;;-140.72;100.00;52555.22;4949362;28;20027;-73
2022/08/27 03:15:50;;;;;;;3.92;1.38;;;;;;;-140.72;100.00;52557.25;4950911;28;20035;-73
2022/08/27 03:18:20;;;;;;;1.58;0.88;;;;;;;-140.72;100.00;52563.34;4950218;28;20482;-73
2022/08/27 03:20:51;;;;;;;4.50;1.15;;;;;;;-140.72;100.00;52545.06;4950354;28;20437;-73
2022/08/27 03:23:21;;;;;;;1.67;0.77;;;;;;;-140.72;100.00;52528.84;4952613;28;20034;-73
2022/08/27 03:25:52;;;;;;;3.75;0.98;;;;;;;-140.72;100.00;52589.72;4948981;28;20035;-74
2022/08/27 03:28:19;;;;;;;2.08;0.85;;;;;;;-140.72;100.00;52545.06;4950256;28;20031;-72
2022/08/27 03:30:49;;;;;;;1.83;1.20;;;;;;;-140.72;100.00;52545.06;4949248;28;20028;-74
2022/08/27 03:33:14;;;;;;;;;;;;;;;-140.72;100.00;52577.53;4951160;28;20057;-72
2022/08/27 03:35:40;;;;;;;2.33;1.17;;;;;;;-140.72;100.00;52585.66;4952608;28;20430;-74
2022/08/27 03:38:05;;;;;;;1.38;1.02;;;;;;;-140.72;100.00;52563.34;4948194;28;20090;-73
2022/08/27 03:40:31;;;;;;;3.45;1.25;;;;;;;-140.72;100.00;52597.84;4950331;28;20083;-73
2022/08/27 03:42:57;;;;;;;1.55;0.80;;;;;;;-140.72;100.00;52565.38;4951976;28;20464;-73
2022/08/27 03:45:23;;;;;;;4.22;1.27;;;;;;;-140.72;100.00;52581.59;4952099;28;20037;-72
2022/08/27 03:47:50;;;;;;;3.25;1.00;;;;;;;-140.72;100.00;52520.72;4948802;28;20454;-72
2022/08/27 03:50:15;;;;;;;2.40;1.25;;;;;;;-140.72;100.00;52573.50;4949525;28;20062;-74
2022/08/27 03:52:40;;;;;;;2.75;0.80;;;;;;;-140.72;100.00;52603.94;4948364;28;20330;-74
2022/08/27 03:55:07;;;;;;;3.33;1.30;;;;;;;-140.72;100.00;52577.53;4951382;28;20069;-73
2022/08/27 03:57:32;;;;;;;2.63;1.63;;;;;;;-140.72;100.00;52569.44;4952335;28;20027;-74
2022/08/27 04:00:00;;;;;;;1.25;0.73;;;;;;;-140.72;100.00;52565.38;4951237;28;20081;-73
2022/08/27 04:02:26;;;;;;;1.92;0.98;;;;;;;-140.72;100.00;52601.91;4948848;28;20062;-72
2022/08/27 04:04:51;;;;;;;4.55;1.58;;;;;;;-140.72;100.00;52575.50;4947739;29;20124;-73
2022/08/27 04:07:17;;;;;;;2.42;0.70;;;;;;;-140.72;100.00;52601.91;4949297;28;20037;-73
2022/08/27 04:09:43;;;;;;;4.25;1.58;;;;;;;-140.72;100.00;52571.47;4949729;28;20035;-73
2022/08/27 04:12:11;;;;;;;1.33;0.55;;;;;;;-140.72;100.00;52565.38;4950309;28;20038;-72
2022/08/27 04:14:37;;;;;;;1.30;0.93;;;;;;;-140.72;100.00;52583.63;4951594;28;20031;-73
2022/08/27 04:17:03;;;;;;;1.52;1.00;;;;;;;-140.72;100.00;52561.31;4955339;28;20027;-73
2022/08/27 04:19:32;;;;;;;1.70;1.05;;;;;;;-140.72;100.00;52553.19;4955512;28;20031;-73
2022/08/27 04:22:00;;;;;;;7.03;1.23;;;;;;;-140.72;100.00;52551.16;4954555;28;20035;-73
2022/08/27 04:24:25;;;;;;;2.38;1.10;;;;;;;-140.72;100.00;52549.13;4951809;28;20405;-73
2022/08/27 04:26:51;;;;;;;2.95;0.77;;;;;;;-140.72;100.00;52589.72;4951761;28;20034;-73
2022/08/27 04:29:16;;;;;;;3.22;1.05;;;;;;;-140.72;100.00;52577.53;4950410;28;20038;-73
2022/08/27 04:31:42;;;;;;;4.07;1.23;;;;;;;-140.72;100.00;52555.22;4955361;28;20539;-74
2022/08/27 04:34:07;;;;;;;2.95;0.98;;;;;;;-140.72;100.00;52569.44;4954056;28;20037;-73
2022/08/27 04:36:32;;;;;;;1.83;0.82;;;;;;;-140.72;100.00;52597.84;4945045;28;20051;-73
2022/08/27 04:38:58;;;;;;;1.75;1.00;;;;;;;-140.72;100.00;52571.47;4951483;28;20078;-74
2022/08/27 04:41:26;;;;;;;2.50;1.42;;;;;;;-140.72;100.00;52597.84;4950660;28;20683;-73
2022/08/27 04:43:55;;;;;;;4.28;1.08;;;;;;;-140.72;100.00;52577.53;4953543;28;20449;-73
2022/08/27 04:46:24;;;;;;;2.72;0.95;;;;;;;-140.72;100.00;52563.34;4954772;28;20031;-74
2022/08/27 04:48:54;;;;;;;1.70;1.02;;;;;;;-140.72;100.00;52624.22;4950809;28;20322;-73
2022/08/27 04:51:20;;;;;;;1.17;0.88;;;;;;;-140.72;100.00;52593.78;4950637;28;20039;-73
2022/08/27 04:53:45;;;;;;;3.40;1.13;;;;;;;-140.72;100.00;52569.44;4954841;28;20491;-73
2022/08/27 04:56:14;;;;;;;4.78;1.45;;;;;;;-140.72;100.00;52565.38;4957481;28;20035;-72
2022/08/27 04:58:40;;;;;;;1.80;1.05;;;;;;;-140.72;100.00;52561.31;4954386;28;20082;-73
2022/08/27 05:01:06;;;;;;;6.10;1.02;;;;;;;-140.72;100.00;52597.84;4948946;28;20031;-73
2022/08/27 05:03:32;;;;;;;6.60;1.10;;;;;;;-140.72;100.00;52541.03;4950042;28;20033;-74
2022/08/27 05:06:01;;;;;;;5.22;1.58;;;;;;;-140.72;100.00;52595.81;4949238;28;20067;-74
2022/08/27 05:08:26;;;;;;;5.85;1.30;;;;;;;-140.72;100.00;52561.31;4947121;28;20424;-73
2022/08/27 05:10:52;;;;;;;2.67;0.90;;;;;;;-140.72;100.00;52583.63;4946569;28;20035;-73
2022/08/27 05:13:19;;;;;;;2.50;1.13;;;;;;;-140.72;100.00;52549.13;4951287;28;20039;-74
2022/08/27 05:15:47;;;;;;;4.55;1.52;;;;;;;-140.72;100.00;52563.34;4953133;28;20027;-73
2022/08/27 05:18:14;;;;;;;2.47;0.88;;;;;;;-140.72;100.00;52522.75;4952249;28;20041;-72
2022/08/27 05:20:47;;;;;;;1.58;1.15;;;;;;;-140.72;100.00;52545.06;4953674;28;20046;-72
2022/08/27 05:23:14;;;;;;;2.38;1.13;;;;;;;-140.72;100.00;52565.38;4949729;28;20031;-72
2022/08/27 05:25:42;;;;;;;1.10;0.63;;;;;;;-140.72;100.00;52532.91;4948972;28;20101;-72
2022/08/27 05:28:08;;;;;;;1.58;0.85;;;;;;;-140.72;100.00;52539.00;4949508;28;20039;-73
2022/08/27 05:30:39;;;;;;;1.52;0.80;;;;;;;-140.72;100.00;52541.03;4952964;28;20673;-73
2022/08/27 05:33:06;;;;;;;4.25;1.90;;;;;;;-140.72;100.00;52520.72;4950162;29;20085;-74
2022/08/27 05:35:32;;;;;;;1.88;1.13;;;;;;;-140.72;100.00;52553.19;4951346;28;20031;-79
2022/08/27 05:37:59;;;;;;;2.55;1.00;;;;;;;-140.72;100.00;52557.25;4949971;28;20055;-79
2022/08/27 05:40:24;;;;;;;2.13;1.10;;;;;;;-140.72;100.00;52496.38;4957354;28;20027;-77
2022/08/27 05:42:50;;;;;;;4.25;1.15;;;;;;;-140.72;100.00;52534.94;4955159;28;20371;-79
2022/08/27 05:45:16;;;;;;;2.00;1.00;;;;;;;-140.72;100.00;52514.63;4951399;28;20023;-78
2022/08/27 05:47:41;;;;;;;3.05;1.15;;;;;;;-140.72;100.00;52530.88;4951799;28;20034;-80
2022/08/27 05:50:08;;;;;;;6.40;1.30;;;;;;;-140.72;100.00;52508.56;4952213;28;20059;-78
2022/08/27 05:52:35;;;;;;;2.97;0.90;;;;;;;-140.72;100.00;52506.53;4950624;28;20546;-78
2022/08/27 05:55:00;;;;;;;4.95;1.63;;;;;;;-140.72;100.00;52496.38;4951414;28;20027;-79
2022/08/27 05:57:25;;;;;;;2.72;1.30;;;;;;;-140.72;100.00;52480.16;4955783;28;20062;-80
2022/08/27 06:02:36;;;;;;;4.40;0.90;;;;;;;-140.72;100.00;52480.16;4954012;28;20057;-79
2022/08/27 06:05:03;;;;;;;2.15;0.60;;;;;;;-140.72;100.00;52508.56;4954820;28;20379;-79
2022/08/27 06:07:29;;;;;;;1.73;0.88;;;;;;;-140.72;100.00;52476.09;4953545;28;20038;-79
2022/08/27 06:09:56;;;;;;;2.13;0.88;;;;;;;-140.72;100.00;52490.28;4953818;28;20436;-80
2022/08/27 06:12:22;;;;;;;1.52;0.75;;;;;;;-140.72;100.00;52496.38;4949172;28;20039;-80
2022/08/27 06:14:47;;;;;;;0.88;0.52;;;;;;;-140.72;100.00;52476.09;4951984;28;20114;-78
2022/08/27 06:17:12;;;;;;;2.75;0.88;;;;;;;-140.72;100.00;52486.22;4953541;28;20031;-75
2022/08/27 06:19:38;;;;;;;2.05;0.90;;;;;;;-140.72;100.00;52492.31;4953357;28;20102;-75
2022/08/27 06:22:04;;;;;;;0.85;0.60;;;;;;;-140.72;100.00;52459.84;4951669;29;20246;-78
2022/08/27 06:24:29;;;;;;;3.67;1.25;;;;;;;-140.72;100.00;52457.81;4952711;28;20027;-78
2022/08/27 06:26:56;;;;;;;2.80;0.82;;;;;;;-140.72;92.86;52467.97;4952489;28;20082;-76
2022/08/27 06:29:23;;;;;;;3.97;1.20;;;;;;;-140.72;83.54;52427.38;4950526;28;20034;-76
2022/08/27 06:31:49;;;;;;;2.15;1.05;;;;;;;-140.72;78.41;52480.16;4951525;28;20062;-76
2022/08/27 06:34:14;;;;;;;4.50;1.38;;;;;;;-140.72;69.37;52478.13;4949525;28;20422;-76
2022/08/27 06:36:41;;;;;;;1.02;0.55;;;;;;;-140.72;58.32;52431.44;4950144;28;20054;-76
2022/08/27 06:39:07;;;;;;;2.75;0.88;;;;;;;-140.72;49.61;52459.84;4950276;28;20093;-75
2022/08/27 06:41:33;;;;;;;4.55;0.60;;;;;;;-140.72;45.17;52447.69;4950055;28;20452;-76
2022/08/27 06:43:59;;;;;;;2.35;0.85;;;;;;;-140.72;43.76;52427.38;4952561;28;20078;-74
2022/08/27 06:46:28;;;;;;;2.17;0.98;;;;;;;-140.72;36.64;52482.16;4949747;28;20509;-76
2022/08/27 06:48:55;;;;;;;3.58;1.13;;;;;;;-140.72;32.81;52465.94;4948245;28;20030;-75
2022/08/27 06:51:24;;;;;;;3.60;1.10;;;;;;;-140.72;27.88;52459.84;4949728;28;20019;-76
2022/08/27 06:53:51;;;;;;;1.23;0.90;;;;;;;-140.72;29.61;52459.84;4951841;28;20034;-75
2022/08/27 06:56:17;;;;;;;2.70;0.95;;;;;;;-140.72;30.73;52488.25;4948342;28;20019;-74
2022/08/27 06:58:43;;;;;;;2.55;0.90;;;;;;;-140.72;25.46;52415.22;4949533;28;20098;-71
2022/08/27 07:01:17;;;;;;;5.00;1.48;;;;;;;-140.72;24.11;52431.44;4948038;28;20019;-72
2022/08/27 07:03:44;;;;;;;2.08;1.10;;;;;;;-140.72;18.13;52407.09;4948636;28;20035;-75
2022/08/27 07:06:12;;;;;;;2.53;1.10;;;;;;;-140.72;16.50;52407.09;4948316;28;20034;-72
2022/08/27 07:08:38;;;;;;;3.60;1.10;;;;;;;-140.72;9.09;52413.19;4952305;28;20419;-75
2022/08/27 07:11:04;;;;;;;1.52;1.00;;;;;;;-140.72;4.23;52425.34;4951234;28;20461;-73
2022/08/27 07:13:30;;;;;;;5.00;1.40;;;;;;;-140.72;1.06;52401.00;4951417;28;20027;-74
2022/08/27 07:15:56;;;;;;;1.95;1.20;;;;;;;-140.72;0.62;52401.00;4951170;28;20078;-72
2022/08/27 07:18:22;;;;;;;3.20;1.05;;;;;;;-140.72;0.75;52398.97;4948788;28;20027;-71
2022/08/27 07:20:50;;;;;;;2.28;1.23;;;;;;;-140.72;0.00;52370.56;4949834;28;20067;-72
2022/08/27 07:23:15;;;;;;;2.55;1.15;;;;;;;-140.72;0.00;52439.56;4952091;28;20035;-73
2022/08/27 07:25:41;;;;;;;1.92;1.38;;;;;;;-140.72;0.00;52394.91;4950164;28;20122;-73
2022/08/27 07:28:06;;;;;;;3.72;1.17;;;;;;;-140.72;0.00;52346.22;4949223;29;20039;-72
2022/08/27 07:30:32;;;;;;;4.07;1.40;;;;;;;-140.72;0.00;52398.97;4950209;29;20523;-73
2022/08/27 07:32:57;;;;;;;4.22;1.23;;;;;;;-140.72;0.00;52370.56;4950976;28;20043;-73
2022/08/27 07:35:22;;;;;;;2.55;1.38;;;;;;;-140.72;0.00;52360.44;4950495;28;20041;-72
2022/08/27 07:37:49;;;;;;;2.40;0.98;;;;;;;-140.72;0.00;52392.88;4950118;28;20420;-72
2022/08/27 07:40:15;;;;;;;5.22;1.52;;;;;;;-140.72;0.00;52356.38;4950824;28;20097;-72
2022/08/27 07:45:27;;;;;;;3.95;1.95;;;;;;;-140.72;0.00;52386.81;4948160;28;20086;-70
2022/08/27 07:47:52;;;;;;;2.47;1.20;;;;;;;-140.72;0.00;52382.75;4948768;28;20028;-70
2022/08/27 07:50:22;;;;;;;4.28;1.25;;;;;;;-140.72;0.00;52370.56;4948126;28;20070;-72
2022/08/27 07:52:48;;;;;;;2.38;0.98;;;;;;;-140.72;0.00;52350.28;4951179;28;20113;-71
2022/08/27 07:55:14;;;;;;;1.88;1.00;;;;;;;-140.72;0.00;52346.22;4955321;28;20028;-70
2022/08/27 07:57:39;;;;;;;2.88;1.20;;;;;;;-140.72;0.00;52388.84;4951238;28;20038;-70
2022/08/27 08:00:09;;;;;;;7.25;1.42;;;;;;;-140.72;0.00;52360.44;4953093;28;20035;-72
2022/08/27 08:02:35;;;;;;;3.05;0.88;;;;;;;-140.72;0.00;52368.53;4948344;28;20035;-70
2022/08/27 08:05:00;;;;;;;2.10;1.02;;;;;;;-140.72;0.00;52313.75;4947520;29;20027;-71
2022/08/27 08:07:25;;;;;;;3.13;1.15;;;;;;;-140.72;0.00;52342.16;4946063;28;20023;-72
2022/08/27 08:09:51;;;;;;;2.17;0.80;;;;;;;-140.72;0.00;52330.00;4953946;28;21052;-70
2022/08/27 08:12:16;;;;;;;3.35;1.25;;;;;;;-140.72;0.00;52334.03;4953428;28;20142;-71
2022/08/27 08:14:42;;;;;;;1.25;0.77;;;;;;;-140.72;0.00;52346.22;4952972;28;20429;-72
2022/08/27 08:17:08;;;;;;;1.42;0.73;;;;;;;-140.72;0.00;52340.13;4952413;28;20049;-71
2022/08/27 08:19:33;;;;;;;2.40;0.70;;;;;;;-140.72;0.00;52299.56;4952865;28;20035;-71
2022/08/27 08:21:59;;;;;;;1.42;0.60;;;;;;;-140.72;0.00;52317.81;4952478;28;20031;-71
2022/08/27 08:24:25;;;;;;;1.27;0.60;;;;;;;-140.72;0.00;52297.53;4953351;28;20074;-72
2022/08/27 08:26:50;;;;;;;0.88;0.47;;;;;;;-140.72;0.00;52256.94;4951186;28;20035;-70
2022/08/27 08:29:16;;;;;;;1.65;0.45;;;;;;;-140.72;0.00;52297.53;4946030;29;20027;-70
2022/08/27 08:31:42;;;;;;;1.60;0.50;;;;;;;-140.72;0.00;52342.16;4953412;28;20039;-72
2022/08/27 08:34:08;;;;;;;2.35;0.70;;;;;;;-140.72;0.00;52315.78;4951666;28;20034;-71
2022/08/27 08:36:34;;;;;;;2.58;0.47;;;;;;;-140.72;0.00;52281.28;4952137;28;20055;-71
2022/08/27 08:38:59;;;;;;;2.80;0.68;;;;;;;-140.72;0.00;52256.94;4952669;28;20179;-72
2022/08/27 08:41:47;;;;;;;1.50;0.50;;;;;;;-140.72;0.00;52321.88;4952143;28;20063;-73
2022/08/27 08:44:18;;;;;;;1.20;0.57;;;;;;;-140.72;0.00;52256.94;4953111;28;20914;-73
2022/08/27 08:46:48;;;;;;;2.38;0.75;;;;;;;-140.72;0.00;52279.25;4950288;29;20706;-71
2022/08/27 08:49:39;;;;;;;0.52;0.22;;;;;;;-140.72;0.00;52261.00;4951552;28;20035;-72
2022/08/27 08:52:13;;;;;;;0.57;0.22;;;;;;;-140.72;0.00;52236.66;4950518;29;20031;-74
2022/08/27 08:54:38;;;;;;;1.95;0.65;;;;;;;-140.72;0.00;52246.78;4952207;28;20105;-72
2022/08/27 08:57:23;;;;;;;1.77;0.60;;;;;;;-140.72;0.00;52250.84;4953708;28;20456;-71
2022/08/27 09:00:03;;;;;;;1.45;0.30;;;;;;;-140.72;0.00;52283.31;4949255;28;20051;-72
2022/08/27 09:02:29;;;;;;;1.75;0.40;;;;;;;-140.72;0.00;52261.00;4950630;28;20026;-72
2022/08/27 09:04:57;;;;;;;1.90;0.40;;;;;;;-140.72;0.00;52283.31;4957697;28;20482;-73
2022/08/27 09:07:51;;;;;;;1.17;0.30;;;;;;;-140.72;0.00;52232.59;4957138;28;20051;-73
2022/08/27 09:10:25;;;;;;;1.35;0.52;;;;;;;-140.72;0.00;52192.00;4957773;28;20022;-73
2022/08/27 09:12:55;;;;;;;3.03;0.40;;;;;;;-140.72;0.00;52232.59;4953977;28;20476;-72
2022/08/27 09:15:28;;;;;;;0.70;0.30;;;;;;;-140.72;0.00;52246.78;4953461;28;20037;-70
2022/08/27 09:18:05;;;;;;;1.60;0.40;;;;;;;-140.72;0.00;52240.72;4960393;28;20054;-70
2022/08/27 09:20:31;;;;;;;1.45;0.47;;;;;;;-140.72;0.00;52192.00;4956307;28;20514;-71
2022/08/27 09:23:10;;;;;;;1.65;0.50;;;;;;;-140.72;0.00;52175.78;4951306;28;20118;-72
2022/08/27 09:25:39;;;;;;;1.40;0.60;;;;;;;-140.72;0.00;52147.38;4953322;28;20037;-72
2022/08/27 09:31:15;;;;;;;1.02;0.20;;;;;;;-140.72;0.00;52104.75;4959417;28;20395;-71
2022/08/27 09:33:44;;;;;;;0.90;0.30;;;;;;;-140.72;0.00;52129.13;4960303;28;20026;-72
2022/08/27 09:36:12;;;;;;;1.67;0.38;;;;;;;-140.72;0.00;52102.75;4952798;28;20034;-69
2022/08/27 09:38:49;;;;;;;0.77;0.20;;;;;;;-140.72;0.00;52025.63;4953061;28;20046;-70
2022/08/27 09:41:24;;;;;;;1.20;0.40;;;;;;;-140.72;0.00;52017.53;4944339;28;20291;-73
2022/08/27 09:44:06;;;;;;;0.70;0.32;;;;;;;-140.72;0.00;51940.41;4954048;28;20035;-70
2022/08/27 09:46:31;;;;;;;1.80;0.25;;;;;;;-140.72;0.00;52025.63;4954322;28;20047;-69
2022/08/27 09:49:08;;;;;;;0.40;0.30;;;;;;;-140.72;0.00;52049.97;4952106;28;20432;-75
2022/08/27 09:51:34;;;;;;;1.60;0.38;;;;;;;-140.72;0.00;52092.59;4953296;28;20499;-76
2022/08/27 09:54:02;;;;;;;0.90;0.20;;;;;;;-140.72;0.00;52098.69;4953610;28;20106;-74
2022/08/27 09:56:33;;;;;;;1.55;0.30;;;;;;;-140.72;0.00;52114.91;4952265;28;20028;-77
2022/08/27 09:59:04;;;;;;;1.88;0.20;;;;;;;-140.72;0.00;52228.53;4952408;28;20023;-76
2022/08/27 10:01:33;;;;;;;2.58;0.40;;;;;;;-140.72;0.00;52198.09;4952584;28;20503;-77
2022/08/27 10:04:10;;;;;;;2.65;0.65;;;;;;;-140.72;0.00;52248.81;4952974;28;20027;-77
2022/08/27 10:06:42;;;;;;;2.20;0.20;;;;;;;-140.72;0.00;52224.47;4953339;28;20053;-74
2022/08/27 10:09:15;;;;;;;0.45;0.20;;;;;;;-140.72;0.00;52220.41;4952942;28;20117;-76
2022/08/27 10:11:59;;;;;;;1.42;0.28;;;;;;;-140.72;0.00;52254.91;4952935;28;20038;-76
2022/08/27 10:14:51;;;;;;;0.55;0.32;;;;;;;-140.72;0.00;52273.19;4942888;29;20039;-76
2022/08/27 10:17:28;;;;;;;1.63;0.50;;;;;;;-140.72;0.00;52246.78;4944472;28;20453;-76
2022/08/27 10:20:00;;;;;;;2.90;0.52;;;;;;;-140.72;0.00;52248.81;4945899;29;20046;-70
2022/08/27 10:22:46;;;;;;;1.77;0.60;;;;;;;-140.72;0.00;52202.16;4953058;28;20282;-75
2022/08/27 10:25:15;;;;;;;1.75;0.57;;;;;;;-140.72;0.00;52179.84;4956631;28;20051;-75
2022/08/27 10:28:09;;;;;;;1.38;0.30;;;;;;;-140.72;0.00;52173.75;4951506;28;20046;-75
2022/08/27 10:30:44;;;;;;;1.02;0.28;;;;;;;-140.72;0.00;52206.22;4941360;28;20086;-74
2022/08/27 10:33:38;;;;;;;1.75;0.40;;;;;;;-140.72;0.00;52175.78;4948789;28;20031;-73
2022/08/27 10:36:17;;;;;;;0.80;0.40;;;;;;;-140.72;0.00;52143.31;4949891;28;20039;-74
2022/08/27 10:38:51;;;;;;;1.27;0.47;;;;;;;-140.72;0.00;52072.31;4940872;29;20043;-76
2022/08/27 10:41:41;;;;;;;4.88;0.40;;;;;;;-140.72;0.00;52082.44;4950509;28;20035;-74
2022/08/27 10:44:12;;;;;;;;;;;;;;;-140.72;0.00;52123.03;4953411;28;20038;-74
2022/08/27 10:46:59;;;;;;;2.67;0.60;;;;;;;-140.72;0.00;51964.78;4949006;28;20013;-75
2022/08/27 10:49:43;;;;;;;1.70;0.20;;;;;;;-140.72;0.00;51920.13;4952308;28;20035;-75
2022/08/27 10:52:22;;;;;;;0.75;0.13;;;;;;;-140.72;0.00;52005.34;4951745;28;20535;-77
2022/08/27 10:55:04;;;;;;;4.05;0.28;;;;;;;-140.72;0.00;52086.50;4950993;28;20487;-75
2022/08/27 10:57:48;;;;;;;0.80;0.30;;;;;;;-140.72;0.00;52147.38;4951786;28;20559;-75
2022/08/27 11:00:18;;;;;;;1.27;0.20;;;;;;;-140.72;0.00;52218.38;4949900;28;20460;-76
2022/08/27 11:02:50;;;;;;;1.27;0.55;;;;;;;-140.72;0.00;52187.97;4948002;28;20118;-74
2022/08/27 11:05:20;;;;;;;2.13;0.32;;;;;;;-140.72;0.00;52037.81;4949739;28;20037;-75
2022/08/27 11:07:52;;;;;;;3.65;0.65;;;;;;;-140.72;0.00;52098.69;4950976;28;20050;-76
2022/08/27 11:10:24;;;;;;;1.42;0.65;;;;;;;-140.72;0.00;52129.13;4948204;28;20039;-75
2022/08/27 11:12:54;;;;;;;2.20;0.43;;;;;;;-140.72;0.00;52137.22;4945371;28;20041;-73
2022/08/27 11:15:25;;;;;;;1.27;0.40;;;;;;;-140.72;0.00;52208.25;4947278;28;20034;-75
2022/08/27 11:18:17;;;;;;;1.17;0.30;;;;;;;-140.72;0.00;52179.84;4948344;28;20038;-74
2022/08/27 11:20:58;;;;;;;2.15;0.28;;;;;;;-140.72;0.00;52157.53;4946778;29;20047;-77
2022/08/27 11:23:32;;;;;;;0.55;0.20;;;;;;;-140.72;0.00;52125.06;4949396;28;20030;-78
2022/08/27 11:26:00;;;;;;;0.50;0.17;;;;;;;-140.72;0.00;52196.06;4947437;28;20035;-76
2022/08/27 11:28:38;;;;;;;1.45;0.45;;;;;;;-140.72;0.00;52163.59;4948739;28;20038;-75
2022/08/27 11:31:12;;;;;;;1.35;0.40;;;;;;;-140.72;0.00;52183.91;4960141;28;20043;-72
2022/08/27 11:33:47;;;;;;;1.75;0.32;;;;;;;-140.72;0.00;52175.78;4954730;28;20125;-73